createdAt,value
2023-02-19T00:01:49.466Z,10.31
2023-02-19T00:04:19.541Z,10.46
2023-02-19T00:06:46.798Z,10.37
2023-02-19T00:09:14.255Z,10.29
2023-02-19T00:11:44.187Z,10.31
2023-02-19T00:14:14.462Z,10.28
2023-02-19T00:16:41.906Z,10.19
2023-02-19T00:19:11.886Z,10.35
2023-02-19T00:21:38.525Z,10.45
2023-02-19T00:24:06.370Z,10.47
2023-02-19T00:26:33.546Z,10.58
2023-02-19T00:29:00.694Z,10.57
2023-02-19T00:31:33.682Z,10.35
2023-02-19T00:34:01.629Z,10.53
2023-02-19T00:36:30.816Z,10.57
2023-02-19T00:38:57.597Z,10.72
2023-02-19T00:41:24.621Z,10.77
2023-02-19T00:43:51.203Z,10.30
2023-02-19T00:46:18.898Z,10.29
2023-02-19T00:48:46.239Z,10.04
2023-02-19T00:51:12.902Z,9.94
2023-02-19T00:53:39.767Z,9.68
2023-02-19T00:56:06.914Z,9.70
2023-02-19T00:58:38.061Z,9.67
2023-02-19T01:01:06.452Z,9.43
2023-02-19T01:03:44.474Z,9.64
2023-02-19T01:06:11.798Z,9.42
2023-02-19T01:08:38.402Z,9.82
2023-02-19T01:11:06.126Z,9.81
2023-02-19T01:13:36.237Z,10.11
2023-02-19T01:16:32.454Z,9.90
2023-02-19T01:18:59.363Z,9.61
2023-02-19T01:21:27.416Z,9.57
2023-02-19T01:24:02.875Z,9.34
2023-02-19T01:26:33.875Z,8.89
2023-02-19T01:29:08.888Z,9.47
2023-02-19T01:31:36.675Z,9.09
2023-02-19T01:34:06.471Z,9.45
2023-02-19T01:36:36.855Z,9.64
2023-02-19T01:39:05.279Z,9.57
2023-02-19T01:41:32.913Z,9.59
2023-02-19T01:44:12.248Z,9.57
2023-02-19T01:46:39.784Z,9.40
2023-02-19T01:49:08.539Z,9.17
2023-02-19T01:52:01.490Z,8.97
2023-02-19T01:54:32.483Z,8.92
2023-02-19T01:57:02.413Z,9.44
2023-02-19T01:59:41.702Z,9.45
2023-02-19T02:02:09.075Z,9.43
2023-02-19T02:04:36.101Z,9.43
2023-02-19T02:07:24.330Z,9.23
2023-02-19T02:10:09.914Z,9.13
2023-02-19T02:12:36.528Z,9.47
2023-02-19T02:15:04.266Z,9.48
2023-02-19T02:17:34.246Z,9.40
2023-02-19T02:20:12.976Z,9.54
2023-02-19T02:22:51.854Z,9.60
2023-02-19T02:25:27.818Z,9.53
2023-02-19T02:28:16.448Z,9.01
2023-02-19T02:30:46.301Z,8.92
2023-02-19T02:33:25.578Z,9.57
2023-02-19T02:35:56.603Z,8.95
2023-02-19T02:38:25.533Z,8.88
2023-02-19T02:40:53.999Z,9.15
2023-02-19T02:43:20.627Z,9.17
2023-02-19T02:45:47.422Z,9.27
2023-02-19T02:48:35.019Z,8.97
2023-02-19T02:51:10.372Z,9.40
2023-02-19T02:54:10.288Z,9.23
2023-02-19T02:56:40.360Z,8.81
2023-02-19T02:59:09.100Z,8.84
2023-02-19T03:02:11.720Z,8.99
2023-02-19T03:05:04.765Z,8.74
2023-02-19T03:07:55.412Z,8.44
2023-02-19T03:10:27.048Z,8.23
2023-02-19T03:13:14.332Z,8.06
2023-02-19T03:16:06.261Z,7.89
2023-02-19T03:18:52.644Z,7.60
2023-02-19T03:21:20.916Z,7.42
2023-02-19T03:24:07.282Z,7.37
2023-02-19T03:26:34.019Z,6.93
2023-02-19T03:29:19.825Z,7.25
2023-02-19T03:31:47.457Z,6.99
2023-02-19T03:34:17.260Z,7.30
2023-02-19T03:36:46.206Z,7.16
2023-02-19T03:39:15.464Z,7.14
2023-02-19T03:41:50.104Z,7.06
2023-02-19T03:44:24.277Z,7.00
2023-02-19T03:47:03.514Z,7.07
2023-02-19T03:49:33.096Z,7.15
2023-02-19T03:52:19.061Z,7.02
2023-02-19T03:54:52.190Z,7.03
2023-02-19T03:57:21.302Z,7.12
2023-02-19T03:59:59.598Z,7.08
2023-02-19T04:02:30.010Z,6.88
2023-02-19T04:05:03.924Z,7.06
2023-02-19T04:07:35.306Z,7.05
2023-02-19T04:10:02.242Z,6.99
2023-02-19T04:12:29.998Z,7.06
2023-02-19T04:15:03.339Z,7.14
2023-02-19T04:17:34.094Z,7.08
2023-02-19T04:20:03.281Z,6.91
2023-02-19T04:22:31.154Z,7.03
2023-02-19T04:24:57.906Z,6.73
2023-02-19T04:27:24.433Z,6.71
2023-02-19T04:29:51.119Z,6.51
2023-02-19T04:32:17.685Z,6.48
2023-02-19T04:34:51.872Z,6.40
2023-02-19T04:37:19.522Z,6.34
2023-02-19T04:39:48.408Z,6.25
2023-02-19T04:42:15.258Z,6.29
2023-02-19T04:44:41.840Z,5.98
2023-02-19T04:47:08.446Z,5.97
2023-02-19T04:49:36.173Z,5.80
2023-02-19T04:52:02.902Z,5.90
2023-02-19T04:54:29.483Z,5.76
2023-02-19T04:56:57.533Z,5.77
2023-02-19T04:59:24.085Z,6.08
2023-02-19T05:01:56.455Z,5.80
2023-02-19T05:04:24.058Z,5.74
2023-02-19T05:06:50.680Z,5.78
2023-02-19T05:09:17.302Z,5.95
2023-02-19T05:11:43.900Z,5.78
2023-02-19T05:14:10.493Z,5.88
2023-02-19T05:16:39.448Z,5.80
2023-02-19T05:19:06.105Z,5.67
2023-02-19T05:21:32.659Z,5.48
2023-02-19T05:23:59.347Z,5.43
2023-02-19T05:26:29.892Z,5.42
2023-02-19T05:28:59.697Z,5.53
2023-02-19T05:31:26.476Z,5.45
2023-02-19T05:33:54.858Z,5.39
2023-02-19T05:36:22.087Z,5.68
2023-02-19T05:38:52.178Z,5.57
2023-02-19T05:41:20.377Z,5.68
2023-02-19T05:43:48.295Z,6.10
2023-02-19T05:46:22.282Z,5.62
2023-02-19T05:48:49.150Z,5.66
2023-02-19T05:51:20.930Z,5.74
2023-02-19T05:53:51.783Z,5.91
2023-02-19T05:56:37.131Z,5.62
2023-02-19T05:59:06.880Z,5.87
2023-02-19T06:01:34.232Z,6.23
2023-02-19T06:04:00.864Z,6.40
2023-02-19T06:06:30.581Z,6.02
2023-02-19T06:08:57.312Z,6.06
2023-02-19T06:11:24.687Z,5.95
2023-02-19T06:13:51.429Z,6.05
2023-02-19T06:16:18.592Z,6.10
2023-02-19T06:18:45.471Z,5.64
2023-02-19T06:21:12.712Z,6.01
2023-02-19T06:23:39.947Z,6.22
2023-02-19T06:26:11.060Z,6.29
2023-02-19T06:28:41.266Z,6.13
2023-02-19T06:31:08.613Z,6.22
2023-02-19T06:33:37.600Z,5.88
2023-02-19T06:36:04.513Z,5.75
2023-02-19T06:38:34.198Z,6.04
2023-02-19T06:41:05.205Z,6.17
2023-02-19T06:43:32.192Z,6.35
2023-02-19T06:45:59.922Z,5.82
2023-02-19T06:48:33.225Z,6.10
2023-02-19T06:51:02.108Z,5.92
2023-02-19T06:53:29.382Z,6.30
2023-02-19T06:56:02.328Z,6.32
2023-02-19T06:58:29.166Z,5.97
2023-02-19T07:00:56.024Z,6.08
2023-02-19T07:03:22.780Z,6.34
2023-02-19T07:05:52.003Z,6.47
2023-02-19T07:08:18.738Z,6.38
2023-02-19T07:10:45.769Z,6.05
2023-02-19T07:13:12.392Z,6.65
2023-02-19T07:15:38.986Z,6.54
2023-02-19T07:18:07.645Z,6.46
2023-02-19T07:20:34.150Z,6.52
2023-02-19T07:23:00.816Z,6.62
2023-02-19T07:25:27.457Z,6.77
2023-02-19T07:27:54.048Z,6.37
2023-02-19T07:30:26.295Z,6.61
2023-02-19T07:32:52.985Z,6.60
2023-02-19T07:35:19.563Z,6.75
2023-02-19T07:37:48.514Z,6.69
2023-02-19T07:40:15.076Z,6.77
2023-02-19T07:42:41.799Z,7.05
2023-02-19T07:45:09.330Z,7.01
2023-02-19T07:47:38.086Z,6.48
2023-02-19T07:50:04.707Z,6.42
2023-02-19T07:52:36.605Z,6.47
2023-02-19T07:55:03.410Z,6.58
2023-02-19T07:57:31.325Z,6.62
2023-02-19T07:59:58.971Z,6.63
2023-02-19T08:02:44.412Z,6.43
2023-02-19T08:05:13.409Z,6.64
2023-02-19T08:07:42.292Z,6.77
2023-02-19T08:10:27.635Z,6.88
2023-02-19T08:13:22.213Z,6.79
2023-02-19T08:15:54.285Z,6.60
2023-02-19T08:18:34.304Z,6.74
2023-02-19T08:21:01.171Z,6.94
2023-02-19T08:23:28.264Z,7.32
2023-02-19T08:25:58.400Z,7.38
2023-02-19T08:28:25.083Z,7.28
2023-02-19T08:30:52.139Z,7.44
2023-02-19T08:33:20.072Z,7.44
2023-02-19T08:35:46.744Z,7.44
2023-02-19T08:38:13.987Z,7.24
2023-02-19T08:40:43.313Z,7.83
2023-02-19T08:43:11.419Z,8.13
2023-02-19T08:45:38.680Z,7.81
2023-02-19T08:48:08.889Z,7.69
2023-02-19T08:50:36.306Z,7.54
2023-02-19T08:53:03.479Z,7.59
2023-02-19T08:55:30.250Z,7.46
2023-02-19T08:57:57.106Z,7.26
2023-02-19T09:00:24.195Z,7.37
2023-02-19T09:02:50.748Z,7.61
2023-02-19T09:05:20.500Z,7.40
2023-02-19T09:07:47.001Z,7.51
2023-02-19T09:10:19.824Z,7.24
2023-02-19T09:12:46.458Z,7.38
2023-02-19T09:15:12.998Z,7.52
2023-02-19T09:17:39.662Z,7.35
2023-02-19T09:20:06.379Z,7.45
2023-02-19T09:22:33.119Z,7.34
2023-02-19T09:25:00.043Z,7.00
2023-02-19T09:27:26.707Z,7.45
2023-02-19T09:30:02.118Z,7.64
2023-02-19T09:32:30.945Z,7.43
2023-02-19T09:35:00.563Z,7.43
2023-02-19T09:37:29.903Z,7.61
2023-02-19T09:39:56.550Z,7.59
2023-02-19T09:42:32.712Z,8.12
2023-02-19T09:45:01.258Z,8.11
2023-02-19T09:47:31.915Z,8.51
2023-02-19T09:50:10.105Z,7.97
2023-02-19T09:52:54.842Z,8.41
2023-02-19T09:55:34.806Z,8.71
2023-02-19T09:58:03.123Z,9.24
2023-02-19T10:00:33.007Z,9.32
2023-02-19T10:03:10.401Z,9.98
2023-02-19T10:05:38.623Z,9.68
2023-02-19T10:08:07.128Z,9.11
2023-02-19T10:10:35.687Z,9.14
2023-02-19T10:13:24.757Z,10.23
2023-02-19T10:15:53.184Z,10.80
2023-02-19T10:18:22.144Z,10.50
2023-02-19T10:20:49.615Z,10.54
2023-02-19T10:23:16.528Z,10.55
2023-02-19T10:25:46.021Z,10.68
2023-02-19T10:28:17.334Z,11.04
2023-02-19T10:30:44.947Z,11.24
2023-02-19T10:33:12.907Z,10.75
2023-02-19T10:35:51.951Z,10.75
2023-02-19T10:38:22.004Z,10.26
2023-02-19T10:40:48.756Z,9.14
2023-02-19T10:43:33.926Z,9.81
2023-02-19T10:46:14.165Z,11.18
2023-02-19T10:48:45.506Z,11.01
2023-02-19T10:51:20.900Z,12.80
2023-02-19T10:53:51.972Z,13.15
2023-02-19T10:56:26.388Z,12.25
2023-02-19T10:58:53.246Z,10.90
2023-02-19T11:01:20.863Z,11.52
2023-02-19T11:03:50.872Z,12.99
2023-02-19T11:06:20.722Z,14.28
2023-02-19T11:09:00.705Z,12.79
2023-02-19T11:11:37.928Z,11.48
2023-02-19T11:14:15.721Z,14.01
2023-02-19T11:16:46.658Z,13.86
2023-02-19T11:19:22.664Z,13.25
2023-02-19T11:21:49.975Z,13.66
2023-02-19T11:24:23.274Z,13.89
2023-02-19T11:26:49.993Z,14.02
2023-02-19T11:29:27.113Z,12.09
2023-02-19T11:31:53.787Z,13.35
2023-02-19T11:34:31.744Z,12.96
2023-02-19T11:37:27.727Z,10.92
2023-02-19T11:39:54.301Z,11.66
2023-02-19T11:42:23.252Z,11.03
2023-02-19T11:45:00.189Z,12.31
2023-02-19T11:47:31.388Z,13.43
2023-02-19T11:50:07.123Z,14.18
2023-02-19T11:52:42.155Z,14.93
2023-02-19T11:55:21.437Z,14.76
2023-02-19T11:57:57.061Z,12.59
2023-02-19T12:00:30.985Z,13.23
2023-02-19T12:03:03.737Z,14.21
2023-02-19T12:05:49.212Z,14.99
2023-02-19T12:08:18.770Z,16.32
2023-02-19T12:10:45.294Z,15.23
2023-02-19T12:13:24.005Z,15.13
2023-02-19T12:16:09.770Z,16.27
2023-02-19T12:18:51.748Z,15.90
2023-02-19T12:21:44.930Z,14.23
2023-02-19T12:24:14.599Z,14.66
2023-02-19T12:27:04.838Z,14.92
2023-02-19T12:29:49.817Z,16.33
2023-02-19T12:32:19.504Z,16.69
2023-02-19T12:34:52.104Z,14.39
2023-02-19T12:37:27.689Z,15.65
2023-02-19T12:39:54.380Z,15.57
2023-02-19T12:42:39.803Z,15.61
2023-02-19T12:45:22.108Z,16.49
2023-02-19T12:47:57.147Z,16.50
2023-02-19T12:50:25.219Z,16.23
2023-02-19T12:53:05.490Z,16.41
2023-02-19T12:55:49.820Z,16.47
2023-02-19T12:58:24.566Z,16.42
2023-02-19T13:00:56.588Z,16.05
2023-02-19T13:03:28.273Z,14.86
2023-02-19T13:06:03.501Z,14.72
2023-02-19T13:09:04.738Z,14.26
2023-02-19T13:11:31.114Z,14.10
2023-02-19T13:14:00.210Z,13.90
2023-02-19T13:16:33.200Z,13.94
2023-02-19T13:19:04.068Z,13.01
2023-02-19T13:21:55.461Z,11.73
2023-02-19T13:24:30.881Z,12.12
2023-02-19T13:27:17.716Z,12.99
2023-02-19T13:29:52.134Z,14.62
2023-02-19T13:32:20.356Z,14.05
2023-02-19T13:34:47.991Z,13.11
2023-02-19T13:37:16.691Z,13.53
2023-02-19T13:39:50.588Z,13.60
2023-02-19T13:42:33.926Z,12.39
2023-02-19T13:45:01.974Z,12.68
2023-02-19T13:47:46.564Z,13.97
2023-02-19T13:50:27.409Z,13.98
2023-02-19T13:53:13.979Z,15.49
2023-02-19T13:55:44.296Z,14.55
2023-02-19T13:58:30.680Z,15.67
2023-02-19T14:00:58.055Z,15.77
2023-02-19T14:03:39.143Z,16.02
2023-02-19T14:06:13.482Z,15.96
2023-02-19T14:09:00.601Z,15.55
2023-02-19T14:11:42.647Z,15.61
2023-02-19T14:14:35.653Z,15.38
2023-02-19T14:17:21.226Z,15.83
2023-02-19T14:19:49.728Z,14.95
2023-02-19T14:22:35.122Z,15.13
2023-02-19T14:25:08.105Z,13.25
2023-02-19T14:27:34.732Z,14.10
2023-02-19T14:30:01.558Z,13.26
2023-02-19T14:32:28.216Z,13.30
2023-02-19T14:34:57.727Z,12.66
2023-02-19T14:37:25.490Z,13.22
2023-02-19T14:39:54.574Z,12.90
2023-02-19T14:42:23.844Z,12.01
2023-02-19T14:44:52.640Z,11.71
2023-02-19T14:47:23.372Z,10.84
2023-02-19T14:49:59.180Z,10.74
2023-02-19T14:52:32.441Z,10.77
2023-02-19T14:55:01.423Z,10.70
2023-02-19T14:57:33.487Z,10.69
2023-02-19T15:00:01.102Z,10.55
2023-02-19T15:02:29.353Z,10.50
2023-02-19T15:04:56.353Z,11.20
2023-02-19T15:07:33.719Z,11.25
2023-02-19T15:10:05.030Z,11.13
2023-02-19T15:12:34.614Z,10.78
2023-02-19T15:15:02.870Z,10.74
2023-02-19T15:17:32.648Z,10.48
2023-02-19T15:20:04.371Z,10.28
2023-02-19T15:22:33.882Z,10.37
2023-02-19T15:25:04.880Z,10.31
2023-02-19T15:27:33.026Z,10.37
2023-02-19T15:29:59.884Z,9.76
2023-02-19T15:32:27.376Z,9.80
2023-02-19T15:34:58.305Z,9.94
2023-02-19T15:37:29.505Z,9.80
2023-02-19T15:40:05.519Z,9.78
2023-02-19T15:42:36.390Z,9.83
2023-02-19T15:45:06.076Z,9.67
2023-02-19T15:47:38.201Z,9.07
2023-02-19T15:50:06.962Z,9.02
2023-02-19T15:52:40.165Z,9.32
2023-02-19T15:55:09.526Z,9.15
2023-02-19T15:57:38.757Z,9.29
2023-02-19T16:00:07.917Z,9.18
2023-02-19T16:02:39.397Z,9.13
2023-02-19T16:05:17.886Z,9.17
2023-02-19T16:07:46.608Z,9.08
2023-02-19T16:10:21.238Z,9.00
2023-02-19T16:13:01.280Z,8.76
2023-02-19T16:15:28.616Z,8.82
2023-02-19T16:17:58.034Z,8.71
2023-02-19T16:20:29.787Z,8.65
2023-02-19T16:23:01.825Z,8.73
2023-02-19T16:25:36.396Z,9.00
2023-02-19T16:28:13.877Z,8.76
2023-02-19T16:30:41.622Z,8.67
2023-02-19T16:33:40.778Z,8.51
2023-02-19T16:36:21.376Z,8.40
2023-02-19T16:39:09.377Z,8.29
2023-02-19T16:41:45.445Z,8.17
2023-02-19T16:44:21.136Z,8.31
2023-02-19T16:46:48.833Z,8.27
2023-02-19T16:49:15.850Z,8.37
2023-02-19T16:51:46.757Z,8.38
2023-02-19T16:54:13.557Z,8.22
2023-02-19T16:56:40.270Z,8.09
2023-02-19T16:59:09.909Z,8.11
2023-02-19T17:01:37.237Z,8.24
2023-02-19T17:04:08.048Z,8.11
2023-02-19T17:06:34.912Z,8.17
2023-02-19T17:09:01.532Z,8.14
2023-02-19T17:11:31.828Z,8.14
2023-02-19T17:14:00.650Z,7.94
2023-02-19T17:16:31.750Z,7.99
2023-02-19T17:18:58.981Z,7.98
2023-02-19T17:21:27.180Z,8.01
2023-02-19T17:23:54.269Z,7.86
2023-02-19T17:26:27.822Z,7.88
2023-02-19T17:29:01.952Z,7.86
2023-02-19T17:31:28.663Z,7.73
2023-02-19T17:33:55.282Z,7.65
2023-02-19T17:36:32.538Z,7.47
2023-02-19T17:38:59.954Z,7.43
2023-02-19T17:41:26.747Z,7.11
2023-02-19T17:43:55.965Z,7.23
2023-02-19T17:46:23.727Z,7.42
2023-02-19T17:48:53.028Z,7.46
2023-02-19T17:51:19.942Z,7.67
2023-02-19T17:53:46.629Z,7.42
2023-02-19T17:56:17.710Z,7.60
2023-02-19T17:58:44.456Z,7.60
2023-02-19T18:01:11.514Z,7.56
2023-02-19T18:03:38.671Z,7.37
2023-02-19T18:06:05.415Z,7.49
2023-02-19T18:08:32.028Z,7.56
2023-02-19T18:10:58.590Z,7.61
2023-02-19T18:13:25.204Z,7.65
2023-02-19T18:15:53.540Z,7.64
2023-02-19T18:18:20.670Z,7.51
2023-02-19T18:20:47.379Z,7.48
2023-02-19T18:23:14.003Z,7.52
2023-02-19T18:25:40.633Z,7.49
2023-02-19T18:28:07.745Z,7.42
2023-02-19T18:30:34.332Z,7.25
2023-02-19T18:33:00.971Z,7.13
2023-02-19T18:35:27.520Z,7.12
2023-02-19T18:37:54.521Z,7.25
2023-02-19T18:40:23.154Z,7.20
2023-02-19T18:42:50.778Z,6.99
2023-02-19T18:45:17.405Z,7.11
2023-02-19T18:47:46.313Z,6.92
2023-02-19T18:50:13.334Z,7.07
2023-02-19T18:52:39.980Z,7.05
2023-02-19T18:55:06.800Z,6.95
2023-02-19T18:57:33.438Z,6.97
2023-02-19T18:59:59.936Z,6.99
2023-02-19T19:02:29.749Z,7.08
2023-02-19T19:04:58.284Z,6.99
2023-02-19T19:07:24.803Z,7.07
2023-02-19T19:09:51.364Z,6.94
2023-02-19T19:12:18.029Z,7.12
2023-02-19T19:14:44.742Z,6.89
2023-02-19T19:17:11.454Z,6.99
2023-02-19T19:19:38.146Z,7.24
2023-02-19T19:22:05.410Z,7.22
2023-02-19T19:24:32.036Z,7.11
2023-02-19T19:26:58.631Z,6.93
2023-02-19T19:29:25.491Z,6.91
2023-02-19T19:31:52.122Z,6.88
2023-02-19T19:34:19.080Z,6.82
2023-02-19T19:36:45.812Z,6.84
2023-02-19T19:39:12.928Z,6.77
2023-02-19T19:41:39.556Z,6.65
2023-02-19T19:44:07.115Z,6.71
2023-02-19T19:46:34.114Z,6.82
2023-02-19T19:49:00.919Z,6.77
2023-02-19T19:51:31.739Z,6.90
2023-02-19T19:53:58.559Z,6.85
2023-02-19T19:56:25.305Z,6.80
2023-02-19T19:58:51.905Z,6.80
2023-02-19T20:01:22.976Z,6.72
2023-02-19T20:03:51.183Z,6.84
2023-02-19T20:06:25.483Z,6.97
2023-02-19T20:08:52.225Z,6.93
2023-02-19T20:11:18.781Z,6.95
2023-02-19T20:13:45.490Z,7.09
2023-02-19T20:16:12.505Z,6.96
2023-02-19T20:18:39.206Z,6.99
2023-02-19T20:21:07.540Z,6.84
2023-02-19T20:23:34.202Z,6.98
2023-02-19T20:26:00.826Z,6.96
2023-02-19T20:28:27.397Z,6.93
2023-02-19T20:30:54.448Z,7.15
2023-02-19T20:33:21.073Z,7.01
2023-02-19T20:35:47.674Z,6.93
2023-02-19T20:38:17.783Z,6.90
2023-02-19T20:40:44.441Z,7.08
2023-02-19T20:43:10.987Z,7.11
2023-02-19T20:45:37.745Z,7.17
2023-02-19T20:48:04.284Z,7.16
2023-02-19T20:50:31.107Z,6.94
2023-02-19T20:52:57.666Z,7.03
2023-02-19T20:55:26.009Z,7.01
2023-02-19T20:57:55.141Z,6.99
2023-02-19T21:00:21.944Z,6.87
2023-02-19T21:02:48.550Z,7.02
2023-02-19T21:05:16.456Z,6.74
2023-02-19T21:07:43.070Z,6.96
2023-02-19T21:10:10.024Z,7.00
2023-02-19T21:12:36.599Z,7.03
2023-02-19T21:15:04.600Z,7.08
2023-02-19T21:17:31.631Z,6.99
2023-02-19T21:19:58.242Z,6.96
2023-02-19T21:22:24.826Z,7.11
2023-02-19T21:24:53.109Z,6.95
2023-02-19T21:27:20.204Z,6.92
2023-02-19T21:29:47.360Z,6.87
2023-02-19T21:32:14.145Z,6.62
2023-02-19T21:34:42.313Z,6.59
2023-02-19T21:37:08.892Z,6.39
2023-02-19T21:39:35.672Z,6.43
2023-02-19T21:42:02.571Z,6.53
2023-02-19T21:44:29.279Z,6.45
2023-02-19T21:46:56.031Z,6.32
2023-02-19T21:49:22.760Z,6.39
2023-02-19T21:51:50.346Z,6.49
2023-02-19T21:54:21.733Z,6.29
2023-02-19T21:56:48.841Z,6.22
2023-02-19T21:59:15.840Z,6.26
2023-02-19T22:01:43.455Z,6.29
2023-02-19T22:04:11.337Z,6.32
2023-02-19T22:06:40.437Z,6.31
2023-02-19T22:09:07.845Z,6.25
2023-02-19T22:11:35.577Z,6.15
2023-02-19T22:14:02.879Z,6.12
2023-02-19T22:16:29.514Z,6.21
2023-02-19T22:18:57.549Z,6.22
2023-02-19T22:21:25.275Z,6.30
2023-02-19T22:23:53.281Z,6.36
2023-02-19T22:26:24.241Z,6.30
2023-02-19T22:28:51.315Z,6.14
2023-02-19T22:31:19.170Z,6.29
2023-02-19T22:33:46.018Z,6.37
2023-02-19T22:36:20.650Z,6.41
2023-02-19T22:38:47.594Z,6.42
2023-02-19T22:41:14.980Z,6.62
2023-02-19T22:43:41.843Z,6.54
2023-02-19T22:46:13.937Z,6.58
2023-02-19T22:48:43.111Z,6.54
2023-02-19T22:51:13.699Z,6.40
2023-02-19T22:53:44.824Z,6.56
2023-02-19T22:56:11.847Z,6.62
2023-02-19T22:58:40.216Z,6.58
2023-02-19T23:01:06.895Z,6.48
2023-02-19T23:03:33.493Z,6.41
2023-02-19T23:06:05.049Z,6.54
2023-02-19T23:08:31.715Z,6.45
2023-02-19T23:10:58.311Z,6.62
2023-02-19T23:13:24.982Z,6.43
2023-02-19T23:15:51.536Z,6.62
2023-02-19T23:18:18.189Z,6.45
2023-02-19T23:20:44.753Z,6.45
2023-02-19T23:23:11.458Z,6.49
2023-02-19T23:25:38.080Z,6.37
2023-02-19T23:28:06.790Z,6.63
2023-02-19T23:30:33.600Z,6.38
2023-02-19T23:33:00.344Z,6.46
2023-02-19T23:35:27.078Z,6.58
2023-02-19T23:37:53.861Z,6.47
2023-02-19T23:40:20.359Z,6.65
2023-02-19T23:42:46.940Z,6.67
2023-02-19T23:45:15.477Z,6.60
2023-02-19T23:47:42.120Z,6.63
2023-02-19T23:50:10.184Z,6.69
2023-02-19T23:52:36.798Z,6.55
2023-02-19T23:55:03.370Z,6.42
2023-02-19T23:57:30.009Z,6.32
2023-02-19T23:59:56.653Z,6.27
